Time;durP1;ratioP1;P1;durP2;ratioP2;P2;SDS_P1;SDS_P2;PMS_P1;PMS_P2;Temp;Humidity;BMP_temperature;BMP_pressure;BME280_temperature;BME280_humidity;BME280_pressure;Samples;Min_cycle;Max_cycle;Signal;HPM_P1;HPM_P2
2023/07/06 00:01:52;;;;;;;22.70;16.80;;;;;;;12.80;88.39;100350.50;10467114;28;20045;-75
2023/07/06 00:06:55;;;;;;;25.65;17.67;;;;;;;12.83;88.42;100358.31;10459807;28;20045;-75
2023/07/06 00:12:00;;;;;;;22.65;16.60;;;;;;;12.88;87.99;100363.28;10455512;28;20099;-75
2023/07/06 00:17:12;;;;;;;28.05;18.33;;;;;;;12.90;87.59;100367.56;10454972;28;20041;-77
2023/07/06 00:22:15;;;;;;;29.05;18.45;;;;;;;12.81;88.10;100363.00;10455138;28;20408;-76
2023/07/06 00:27:20;;;;;;;28.30;18.60;;;;;;;12.70;88.14;100365.81;10440494;28;20115;-75
2023/07/06 00:32:28;;;;;;;27.52;19.95;;;;;;;12.65;88.39;100368.09;10460820;28;20045;-75
2023/07/06 00:37:31;;;;;;;25.08;18.40;;;;;;;12.66;88.13;100377.88;10460547;28;20124;-75
2023/07/06 00:42:35;;;;;;;23.73;18.67;;;;;;;12.62;88.00;100377.31;10460250;28;20499;-75
2023/07/06 00:47:49;;;;;;;27.02;18.30;;;;;;;12.63;87.31;100378.16;10449181;28;20033;-75
2023/07/06 00:52:58;;;;;;;23.15;17.73;;;;;;;12.52;87.69;100379.94;10449797;28;20044;-76
2023/07/06 00:58:08;;;;;;;26.10;18.02;;;;;;;12.46;87.63;100385.91;10443833;28;20091;-76
2023/07/06 01:03:12;;;;;;;23.83;16.23;;;;;;;12.49;87.27;100384.78;10448300;28;20053;-76
2023/07/06 01:08:20;;;;;;;28.92;17.67;;;;;;;12.47;87.27;100398.38;10452079;28;20543;-76
2023/07/06 01:13:25;;;;;;;24.08;15.52;;;;;;;12.52;86.69;100388.03;10456208;28;20060;-76
2023/07/06 01:18:34;;;;;;;25.10;16.27;;;;;;;12.49;86.80;100396.41;10457579;28;20040;-74
2023/07/06 01:24:05;;;;;;;21.95;15.20;;;;;;;12.42;87.30;100397.06;10457364;28;20040;-74
2023/07/06 01:29:31;;;;;;;22.13;15.15;;;;;;;12.46;86.72;100401.22;10463101;28;20044;-77
2023/07/06 01:34:43;;;;;;;26.70;18.00;;;;;;;12.48;86.21;100400.09;10455431;28;20098;-75
2023/07/06 01:39:45;;;;;;;26.17;16.38;;;;;;;12.53;86.13;100403.22;10454719;28;20040;-75
2023/07/06 01:44:48;;;;;;;26.42;17.65;;;;;;;12.59;86.47;100408.06;10458181;28;20052;-75
2023/07/06 01:49:53;;;;;;;29.48;17.80;;;;;;;12.66;86.42;100389.50;10455580;28;20073;-76
2023/07/06 01:55:09;;;;;;;33.35;21.75;;;;;;;12.75;86.17;100394.06;10456808;28;20433;-76
2023/07/06 02:00:15;;;;;;;35.13;21.95;;;;;;;12.62;86.17;100388.09;10451074;28;20071;-76
2023/07/06 02:05:21;;;;;;;38.22;24.48;;;;;;;12.67;85.89;100407.38;10457154;28;20080;-76
2023/07/06 02:10:24;;;;;;;37.85;25.50;;;;;;;12.66;85.69;100396.72;10454574;28;20041;-76
2023/07/06 02:15:27;;;;;;;34.25;23.30;;;;;;;12.26;87.05;100392.16;10465942;28;20037;-74
2023/07/06 02:20:31;;;;;;;36.25;21.85;;;;;;;12.63;85.13;100402.41;10472031;28;20044;-76
2023/07/06 02:25:43;;;;;;;35.75;24.08;;;;;;;12.56;84.99;100402.97;10468025;28;20140;-76
2023/07/06 02:37:33;;;;;;;35.88;24.98;;;;;;;12.41;85.04;100415.06;10453522;28;20057;-76
2023/07/06 02:42:36;;;;;;;39.33;24.10;;;;;;;12.42;84.99;100410.53;10451923;28;20064;-75
2023/07/06 02:47:40;;;;;;;33.20;22.05;;;;;;;12.44;84.49;100401.34;10458351;28;20408;-74
2023/07/06 02:52:45;;;;;;;37.70;24.23;;;;;;;12.37;84.92;100408.28;10452860;28;20458;-74
2023/07/06 02:57:48;;;;;;;36.78;22.75;;;;;;;12.26;85.42;100408.31;10465558;28;20049;-76
2023/07/06 03:02:51;;;;;;;37.63;23.23;;;;;;;12.27;85.30;100418.09;10446518;28;20063;-76
2023/07/06 03:07:55;;;;;;;39.55;24.23;;;;;;;12.33;84.91;100421.13;10458395;28;20464;-75
2023/07/06 03:12:59;;;;;;;34.88;21.35;;;;;;;12.27;84.88;100424.34;10447252;28;20055;-75
2023/07/06 03:18:02;;;;;;;34.45;22.45;;;;;;;12.27;84.91;100420.81;10449175;28;20489;-75
2023/07/06 03:23:06;;;;;;;39.97;22.83;;;;;;;12.30;84.35;100426.78;10443503;28;20056;-75
2023/07/06 03:28:09;;;;;;;30.45;19.80;;;;;;;12.17;84.63;100434.19;10467944;28;20044;-76
2023/07/06 03:33:13;;;;;;;34.55;19.38;;;;;;;12.16;84.74;100430.66;10457479;28;20058;-75
2023/07/06 03:38:17;;;;;;;30.45;18.85;;;;;;;12.17;84.48;100440.44;10457954;28;20458;-74
2023/07/06 03:43:20;;;;;;;33.33;18.15;;;;;;;12.21;84.29;100441.03;10456794;28;20554;-75
2023/07/06 03:48:23;;;;;;;30.52;17.55;;;;;;;12.10;84.55;100452.75;10464095;28;20808;-75
2023/07/06 03:53:27;;;;;;;29.85;17.25;;;;;;;12.13;84.27;100446.25;10454352;28;20044;-74
2023/07/06 03:58:30;;;;;;;27.13;15.70;;;;;;;12.11;84.30;100445.50;10449818;28;20092;-76
2023/07/06 04:03:33;;;;;;;27.67;15.35;;;;;;;12.09;84.28;100451.03;10448771;28;20037;-76
2023/07/06 04:08:38;;;;;;;25.88;16.42;;;;;;;12.11;84.46;100458.97;10462878;28;20523;-76
2023/07/06 04:13:42;;;;;;;23.73;14.70;;;;;;;12.06;84.63;100450.44;10454898;28;20045;-74
2023/07/06 04:18:45;;;;;;;21.80;15.05;;;;;;;12.23;83.93;100457.94;10449458;28;20059;-74
2023/07/06 04:23:50;;;;;;;18.45;13.65;;;;;;;12.33;83.62;100468.78;10445553;28;20073;-75
2023/07/06 04:28:52;;;;;;;25.80;14.65;;;;;;;12.43;83.31;100467.00;10453005;28;20067;-75
2023/07/06 04:33:55;;;;;;;20.92;14.18;;;;;;;12.49;83.28;100466.44;10450320;28;20045;-75
2023/07/06 04:39:00;;;;;;;22.45;14.85;;;;;;;12.53;82.88;100472.41;10455149;28;20036;-75
2023/07/06 04:44:02;;;;;;;21.40;12.88;;;;;;;12.75;81.80;100471.38;10453323;28;20036;-75
2023/07/06 04:49:05;;;;;;;22.75;12.55;;;;;;;12.79;81.25;100470.13;10461337;28;20132;-73
2023/07/06 04:54:10;;;;;;;18.30;12.30;;;;;;;12.78;81.12;100480.06;10463973;28;20043;-75
2023/07/06 04:59:12;;;;;;;15.48;10.93;;;;;;;12.82;80.72;100488.72;10453613;28;20037;-74
2023/07/06 05:04:18;;;;;;;18.88;11.82;;;;;;;12.88;80.23;100490.84;10452331;28;20078;-75
2023/07/06 05:09:24;;;;;;;18.08;10.82;;;;;;;12.72;80.35;100472.47;10465536;28;20048;-75
2023/07/06 05:14:27;;;;;;;15.70;11.27;;;;;;;12.85;80.04;100477.66;10436409;28;20123;-75
2023/07/06 05:19:29;;;;;;;15.63;10.48;;;;;;;12.99;79.98;100482.66;10443728;28;20488;-74
2023/07/06 05:24:33;;;;;;;16.80;9.93;;;;;;;12.93;79.84;100487.75;10466465;28;20103;-75
2023/07/06 05:29:36;;;;;;;14.23;9.13;;;;;;;13.12;79.06;100490.50;10453664;28;20094;-75
2023/07/06 05:34:39;;;;;;;11.10;7.18;;;;;;;13.47;77.63;100489.19;10454612;28;20063;-75
2023/07/06 05:39:44;;;;;;;13.95;8.68;;;;;;;13.81;76.32;100492.28;10462195;28;20128;-76
2023/07/06 05:44:47;;;;;;;14.40;7.93;;;;;;;14.15;75.08;100497.22;10459041;28;20052;-76
2023/07/06 05:49:50;;;;;;;10.13;6.82;;;;;;;14.35;74.44;100500.75;10464955;28;20090;-74
2023/07/06 05:54:54;;;;;;;10.02;5.00;;;;;;;13.87;75.16;100502.53;10463755;28;20049;-74
2023/07/06 05:59:57;;;;;;;13.85;6.82;;;;;;;14.04;74.39;100495.56;10469142;28;20079;-74
2023/07/06 06:05:01;;;;;;;12.93;7.13;;;;;;;14.24;74.82;100503.63;10472942;28;20648;-73
2023/07/06 06:10:06;;;;;;;13.43;7.07;;;;;;;13.86;75.02;100506.22;10470039;28;20741;-73
2023/07/06 06:15:10;;;;;;;14.82;7.45;;;;;;;13.70;75.73;100517.59;10471437;28;20064;-74
2023/07/06 06:20:13;;;;;;;9.52;6.97;;;;;;;13.81;76.66;100518.44;10471001;28;20133;-73
2023/07/06 06:25:18;;;;;;;10.75;6.78;;;;;;;13.78;75.15;100529.53;10464361;28;20436;-72
2023/07/06 06:30:20;;;;;;;10.63;5.28;;;;;;;13.79;75.58;100528.53;10466503;28;20044;-73
2023/07/06 06:35:25;;;;;;;13.43;5.93;;;;;;;13.70;74.70;100549.13;10469000;28;20466;-73
2023/07/06 06:40:30;;;;;;;11.82;6.70;;;;;;;14.00;73.60;100547.31;10472537;28;20049;-74
2023/07/06 06:45:33;;;;;;;10.02;6.07;;;;;;;14.28;73.51;100543.72;10468772;28;20048;-72
2023/07/06 06:50:36;;;;;;;8.50;6.50;;;;;;;14.56;72.14;100544.69;10473638;28;20044;-75
2023/07/06 06:55:40;;;;;;;11.80;5.20;;;;;;;14.45;71.17;100562.91;10460235;28;20072;-71
2023/07/06 07:00:44;;;;;;;7.43;4.13;;;;;;;14.73;70.60;100559.31;10462075;28;20037;-73
2023/07/06 07:05:47;;;;;;;8.52;5.63;;;;;;;15.17;70.17;100554.13;10466569;28;20053;-73
2023/07/06 07:10:54;;;;;;;9.15;4.32;;;;;;;15.43;68.51;100559.69;10465532;28;20052;-73
2023/07/06 07:15:59;;;;;;;10.00;5.25;;;;;;;15.86;68.03;100560.84;10465981;28;20069;-73
2023/07/06 07:21:03;;;;;;;10.98;4.93;;;;;;;15.85;67.32;100563.69;10457952;28;20064;-74
2023/07/06 07:26:08;;;;;;;11.27;5.63;;;;;;;15.89;66.73;100565.09;10462513;28;20451;-74
2023/07/06 07:31:11;;;;;;;15.85;6.13;;;;;;;16.49;65.10;100561.75;10473948;28;20060;-72
2023/07/06 07:36:19;;;;;;;9.40;4.53;;;;;;;16.87;63.34;100575.88;10472005;28;20072;-72
2023/07/06 07:41:24;;;;;;;9.05;4.63;;;;;;;17.18;62.99;100582.50;10469608;28;20036;-72
2023/07/06 07:46:28;;;;;;;10.85;5.00;;;;;;;17.37;62.31;100588.69;10468243;28;20496;-73
2023/07/06 07:51:31;;;;;;;7.32;3.90;;;;;;;17.75;60.12;100586.44;10473071;28;20044;-72
2023/07/06 07:56:35;;;;;;;8.90;4.05;;;;;;;17.56;59.47;100593.03;10469534;28;20090;-73
2023/07/06 08:01:38;;;;;;;7.00;3.45;;;;;;;17.46;61.23;100583.13;10466441;28;20091;-73
2023/07/06 08:06:41;;;;;;;10.15;3.80;;;;;;;17.60;60.23;100584.34;10463382;28;20044;-73
2023/07/06 08:11:46;;;;;;;7.32;3.10;;;;;;;18.05;58.56;100576.84;10460403;28;20469;-73
2023/07/06 08:16:50;;;;;;;6.35;3.00;;;;;;;17.89;57.06;100577.63;10454553;28;20046;-73
2023/07/06 08:21:53;;;;;;;5.97;2.67;;;;;;;18.38;56.15;100585.00;10455440;28;20552;-72
2023/07/06 08:27:13;;;;;;;5.30;2.92;;;;;;;18.82;55.61;100587.38;10450789;28;20119;-73
2023/07/06 08:32:21;;;;;;;6.05;2.70;;;;;;;19.20;55.35;100596.63;10451451;28;20461;-73
2023/07/06 08:37:25;;;;;;;6.80;2.15;;;;;;;18.85;54.71;100595.19;10454808;28;20114;-72
2023/07/06 08:42:31;;;;;;;7.53;2.40;;;;;;;17.86;55.46;100599.72;10459459;28;20087;-73
2023/07/06 08:47:34;;;;;;;8.75;2.63;;;;;;;19.05;53.16;100599.19;10458163;28;20159;-73
2023/07/06 08:52:38;;;;;;;7.53;2.40;;;;;;;18.53;54.29;100600.44;10463416;28;21295;-73
2023/07/06 08:57:45;;;;;;;9.15;2.65;;;;;;;18.17;55.57;100602.66;10462243;28;20091;-74
2023/07/06 09:02:49;;;;;;;7.03;2.72;;;;;;;18.32;54.93;100603.72;10456539;28;20048;-74
2023/07/06 09:07:53;;;;;;;5.15;2.75;;;;;;;19.39;52.18;100612.53;10450103;28;20051;-74
2023/07/06 09:13:13;;;;;;;5.80;2.88;;;;;;;20.52;50.93;100595.66;10449738;28;20048;-73
2023/07/06 09:18:17;;;;;;;5.20;2.70;;;;;;;19.64;50.80;100601.56;10451903;28;20044;-74
2023/07/06 09:23:22;;;;;;;6.35;2.30;;;;;;;19.62;50.14;100609.06;10464218;28;20044;-73
2023/07/06 09:28:29;;;;;;;5.60;2.35;;;;;;;20.57;47.98;100597.84;10460912;28;20052;-75
2023/07/06 09:33:32;;;;;;;6.20;2.22;;;;;;;20.64;49.65;100604.22;10458510;28;20124;-74
2023/07/06 09:38:45;;;;;;;5.15;2.65;;;;;;;20.60;49.09;100602.06;10464288;28;20463;-74
2023/07/06 09:43:53;;;;;;;5.13;2.58;;;;;;;21.19;46.76;100607.63;10464925;28;20773;-75
2023/07/06 09:48:56;;;;;;;3.88;2.17;;;;;;;19.96;48.60;100610.53;10465747;28;20055;-75
2023/07/06 09:54:05;;;;;;;5.63;3.10;;;;;;;19.67;49.04;100617.53;10464598;28;20044;-76
2023/07/06 09:59:12;;;;;;;5.45;2.40;;;;;;;20.03;49.06;100609.66;10455872;28;20047;-75
2023/07/06 10:04:45;;;;;;;7.70;3.00;;;;;;;20.83;48.05;100616.50;10461265;28;20095;-74
2023/07/06 10:09:55;;;;;;;5.40;2.58;;;;;;;20.76;46.37;100610.09;10461619;28;20061;-76
2023/07/06 10:15:05;;;;;;;4.07;1.77;;;;;;;21.32;45.24;100609.69;10457576;28;20095;-74
2023/07/06 10:20:17;;;;;;;6.00;2.15;;;;;;;19.66;48.59;100608.53;10465619;28;20044;-75
2023/07/06 10:25:33;;;;;;;5.10;2.97;;;;;;;21.12;44.32;100623.91;10465664;28;20047;-74
2023/07/06 10:30:41;;;;;;;4.43;2.35;;;;;;;21.33;43.64;100600.44;10471514;28;20098;-74
2023/07/06 10:35:48;;;;;;;3.47;1.85;;;;;;;21.69;44.54;100600.47;10465526;28;20045;-74
2023/07/06 10:40:52;;;;;;;2.90;1.55;;;;;;;22.37;42.17;100608.38;10468331;28;20045;-75
2023/07/06 10:45:59;;;;;;;2.40;1.60;;;;;;;21.89;43.49;100612.53;10466099;28;20048;-75
2023/07/06 10:51:16;;;;;;;2.80;1.67;;;;;;;21.85;42.94;100610.38;10469549;28;20462;-75
2023/07/06 10:56:22;;;;;;;3.15;1.73;;;;;;;21.13;44.00;100616.56;10471031;28;20068;-74
2023/07/06 11:01:37;;;;;;;3.92;1.67;;;;;;;20.84;42.12;100607.28;10471242;28;20399;-74
2023/07/06 11:06:54;;;;;;;3.00;1.83;;;;;;;21.04;43.44;100614.97;10471992;28;20107;-74
2023/07/06 11:12:05;;;;;;;5.43;1.92;;;;;;;21.77;42.20;100608.59;10466697;28;20033;-76
2023/07/06 11:17:23;;;;;;;3.20;1.60;;;;;;;22.23;41.60;100610.13;10464597;28;20412;-74
2023/07/06 11:22:27;;;;;;;6.90;2.08;;;;;;;22.48;40.34;100632.50;10454039;28;20045;-75
2023/07/06 11:27:35;;;;;;;2.75;1.92;;;;;;;21.57;42.47;100623.88;10463127;28;20040;-74
2023/07/06 11:32:53;;;;;;;4.38;2.20;;;;;;;21.23;42.06;100625.34;10469037;28;20036;-75
2023/07/06 11:38:09;;;;;;;1.35;1.00;;;;;;;21.77;41.23;100638.66;10470229;28;20035;-76
2023/07/06 11:43:31;;;;;;;5.15;1.60;;;;;;;22.90;38.65;100627.97;10459981;28;20115;-75
2023/07/06 11:48:45;;;;;;;3.95;1.58;;;;;;;21.96;39.81;100628.16;10475186;28;20048;-75
2023/07/06 11:53:57;;;;;;;2.90;1.40;;;;;;;21.38;41.95;100628.03;10454150;28;20047;-75
2023/07/06 11:59:07;;;;;;;3.13;1.45;;;;;;;22.06;40.53;100631.44;10456824;28;20090;-74
2023/07/06 12:04:18;;;;;;;2.58;1.25;;;;;;;22.49;39.18;100621.38;10463003;28;20268;-74
2023/07/06 12:09:23;;;;;;;3.80;2.33;;;;;;;21.86;40.60;100623.00;10466921;28;20163;-75
2023/07/06 12:14:28;;;;;;;3.10;1.23;;;;;;;23.08;38.78;100620.09;10470469;28;20048;-74
2023/07/06 12:19:33;;;;;;;2.92;1.80;;;;;;;23.42;38.59;100616.56;10468242;28;20091;-75
2023/07/06 12:24:38;;;;;;;4.28;1.20;;;;;;;23.03;38.05;100617.13;10455251;28;20121;-76
2023/07/06 12:29:41;;;;;;;4.38;1.75;;;;;;;24.17;36.94;100616.59;10458740;28;20071;-74
2023/07/06 12:34:48;;;;;;;3.97;1.40;;;;;;;22.86;37.89;100619.34;10465721;28;20055;-73
2023/07/06 12:39:51;;;;;;;3.13;1.58;;;;;;;22.57;40.11;100612.16;10465043;28;20742;-76
2023/07/06 12:44:54;;;;;;;2.95;1.30;;;;;;;23.63;37.69;100612.00;10462490;28;20044;-74
2023/07/06 12:50:04;;;;;;;2.33;1.10;;;;;;;22.12;38.63;100616.97;10463507;28;20036;-74
2023/07/06 12:55:14;;;;;;;2.38;1.33;;;;;;;22.33;39.26;100618.88;10460836;28;20115;-74
2023/07/06 13:00:23;;;;;;;4.10;1.02;;;;;;;22.96;37.46;100613.50;10461711;28;20047;-75
2023/07/06 13:05:29;;;;;;;6.30;1.67;;;;;;;23.72;38.37;100605.25;10453294;28;20171;-74
2023/07/06 13:10:32;;;;;;;3.20;1.38;;;;;;;24.08;36.41;100615.13;10458644;28;20063;-74
2023/07/06 13:15:45;;;;;;;3.05;1.23;;;;;;;24.03;37.27;100613.00;10460425;28;20040;-75
2023/07/06 13:20:52;;;;;;;6.78;1.20;;;;;;;23.37;36.90;100602.59;10470778;28;20079;-75
2023/07/06 13:25:55;;;;;;;6.15;1.60;;;;;;;23.70;37.10;100603.81;10462678;28;20040;-75
2023/07/06 13:30:59;;;;;;;2.05;1.35;;;;;;;24.22;36.01;100607.75;10460479;28;20068;-75
2023/07/06 13:36:04;;;;;;;3.25;1.27;;;;;;;25.54;35.14;100598.53;10461632;28;20036;-74
2023/07/06 13:41:11;;;;;;;3.30;1.40;;;;;;;25.50;34.55;100600.00;10454013;28;20033;-75
2023/07/06 13:46:14;;;;;;;4.22;1.50;;;;;;;25.74;34.31;100600.38;10458058;28;20063;-74
2023/07/06 13:51:18;;;;;;;3.10;1.55;;;;;;;25.09;34.82;100605.84;10460376;28;20471;-76
2023/07/06 13:56:21;;;;;;;8.07;1.60;;;;;;;25.39;33.68;100600.69;10461000;28;20057;-75
2023/07/06 14:01:25;;;;;;;3.72;1.30;;;;;;;27.50;31.60;100599.31;10464338;28;20042;-75
2023/07/06 14:06:30;;;;;;;2.33;1.42;;;;;;;27.39;30.76;100598.13;10466241;28;20048;-75
2023/07/06 14:11:32;;;;;;;3.40;1.38;;;;;;;26.87;31.08;100614.19;10465797;28;20458;-75
2023/07/06 14:16:36;;;;;;;3.33;1.20;;;;;;;25.03;32.18;100612.22;10461366;28;20067;-75
2023/07/06 14:21:41;;;;;;;3.08;1.85;;;;;;;24.11;34.47;100609.22;10468587;28;20041;-76
2023/07/06 14:26:43;;;;;;;6.00;1.85;;;;;;;23.65;36.16;100612.63;10466203;28;20043;-75
2023/07/06 14:31:46;;;;;;;3.53;1.70;;;;;;;24.72;36.00;100597.22;10468828;28;20044;-75
2023/07/06 14:36:54;;;;;;;4.50;1.83;;;;;;;23.83;35.99;100615.69;10468923;28;20045;-74
2023/07/06 14:41:57;;;;;;;5.78;1.70;;;;;;;23.27;35.57;100604.03;10472233;28;20439;-75
2023/07/06 14:47:00;;;;;;;1.90;1.30;;;;;;;25.65;33.54;100608.03;10460925;28;20044;-76
2023/07/06 14:52:05;;;;;;;2.10;1.38;;;;;;;25.83;34.28;100601.78;10464453;28;20033;-74
2023/07/06 14:57:09;;;;;;;4.75;2.33;;;;;;;24.15;35.64;100618.72;10461538;28;20041;-74
2023/07/06 15:02:13;;;;;;;3.55;1.50;;;;;;;25.58;33.57;100610.75;10464222;28;20098;-74
2023/07/06 15:07:17;;;;;;;3.28;1.88;;;;;;;24.45;34.74;100621.94;10466848;28;20067;-74
2023/07/06 15:12:20;;;;;;;3.05;1.73;;;;;;;25.70;33.90;100605.47;10468284;28;20044;-74
2023/07/06 15:17:23;;;;;;;3.25;1.60;;;;;;;26.46;31.42;100590.78;10467267;28;20044;-75
2023/07/06 15:22:27;;;;;;;2.80;1.88;;;;;;;24.96;34.30;100599.31;10459906;28;20067;-75
2023/07/06 15:27:30;;;;;;;3.28;1.98;;;;;;;25.50;32.92;100604.66;10467950;28;20531;-73
2023/07/06 15:32:33;;;;;;;1.92;1.65;;;;;;;26.34;31.42;100594.50;10461593;28;20040;-74
2023/07/06 15:37:37;;;;;;;2.53;1.70;;;;;;;25.36;32.80;100587.38;10469595;28;20072;-74
2023/07/06 15:42:40;;;;;;;5.55;1.85;;;;;;;26.45;32.18;100585.53;10467072;28;20036;-74
2023/07/06 15:47:43;;;;;;;2.95;1.58;;;;;;;25.32;33.05;100588.88;10466696;28;20349;-74
2023/07/06 15:53:03;;;;;;;5.65;2.35;;;;;;;25.10;34.12;100575.44;10461545;28;20040;-76
2023/07/06 15:58:06;;;;;;;5.85;2.10;;;;;;;26.22;32.20;100583.31;10451113;28;20452;-77
2023/07/06 16:03:09;;;;;;;3.03;1.58;;;;;;;25.83;31.78;100577.88;10449573;28;20116;-74
2023/07/06 16:08:13;;;;;;;2.50;1.45;;;;;;;25.07;33.11;100567.63;10459069;28;20042;-75
2023/07/06 16:13:17;;;;;;;1.67;1.30;;;;;;;25.87;32.37;100588.47;10452957;28;20119;-75
2023/07/06 16:18:20;;;;;;;2.47;1.60;;;;;;;25.59;33.18;100578.63;10450428;28;20040;-74
2023/07/06 16:23:24;;;;;;;2.47;1.33;;;;;;;26.33;31.98;100571.66;10450639;28;20053;-75
2023/07/06 16:28:27;;;;;;;5.05;2.28;;;;;;;25.77;32.58;100569.66;10454448;28;20564;-74
2023/07/06 16:33:30;;;;;;;3.97;1.63;;;;;;;27.28;30.93;100578.78;10455653;28;20037;-76
2023/07/06 16:38:34;;;;;;;4.13;1.60;;;;;;;27.48;29.41;100581.31;10454276;28;20111;-73
2023/07/06 16:43:38;;;;;;;3.67;1.67;;;;;;;29.40;28.11;100569.00;10448346;28;20086;-75
2023/07/06 16:48:40;;;;;;;2.10;1.33;;;;;;;30.92;26.19;100572.03;10450923;28;20053;-75
2023/07/06 16:53:45;;;;;;;3.35;2.05;;;;;;;31.48;25.53;100571.94;10452344;28;20049;-74
2023/07/06 16:58:48;;;;;;;5.43;2.00;;;;;;;31.13;25.95;100579.53;10521469;28;20048;-75
2023/07/06 17:03:51;;;;;;;2.53;1.58;;;;;;;33.64;24.19;100580.94;10496245;28;20049;-75
2023/07/06 17:08:55;;;;;;;2.58;1.58;;;;;;;34.42;23.38;100575.19;10209769;28;20066;-74
2023/07/06 17:14:00;;;;;;;3.95;1.30;;;;;;;34.69;23.14;100585.22;9810583;29;20142;-75
2023/07/06 17:19:17;;;;;;;2.42;1.52;;;;;;;32.48;25.00;100588.28;10557822;27;1258309;-74
2023/07/06 17:24:19;;;;;;;2.47;1.50;;;;;;;33.80;23.40;100579.03;10495714;28;20067;-74
2023/07/06 17:29:22;;;;;;;1.98;1.70;;;;;;;34.69;22.97;100586.06;10480236;28;20040;-75
2023/07/06 17:34:26;;;;;;;5.13;1.67;;;;;;;34.75;23.36;100587.75;10477761;28;20527;-74
2023/07/06 17:39:29;;;;;;;3.90;1.80;;;;;;;33.22;23.91;100584.63;10472566;28;20041;-73
2023/07/06 17:44:33;;;;;;;2.35;1.70;;;;;;;33.95;24.13;100587.38;10471055;28;20045;-73
2023/07/06 17:49:37;;;;;;;3.28;1.50;;;;;;;33.25;24.09;100582.13;10466163;28;20041;-75
2023/07/06 17:54:40;;;;;;;2.45;1.40;;;;;;;31.14;25.83;100581.22;10470584;28;20045;-75
2023/07/06 17:59:43;;;;;;;3.40;1.80;;;;;;;28.24;29.46;100582.59;10471315;28;20047;-75
2023/07/06 18:04:47;;;;;;;2.25;1.67;;;;;;;26.81;31.52;100590.28;10469250;28;20052;-75
2023/07/06 18:09:50;;;;;;;3.38;1.55;;;;;;;25.72;33.73;100603.31;10462880;28;20045;-75
2023/07/06 18:14:53;;;;;;;2.88;1.70;;;;;;;24.26;35.36;100601.63;10461398;28;20052;-75
2023/07/06 18:19:57;;;;;;;3.88;2.00;;;;;;;23.40;36.40;100610.41;10460554;28;20812;-75
2023/07/06 18:25:00;;;;;;;3.53;1.98;;;;;;;22.68;37.49;100605.28;10466509;28;20044;-75
2023/07/06 18:30:03;;;;;;;4.30;1.90;;;;;;;22.41;38.32;100607.78;10444910;28;20036;-76
2023/07/06 18:35:09;;;;;;;2.72;2.08;;;;;;;22.00;39.74;100613.06;10444648;28;20043;-75
2023/07/06 18:40:13;;;;;;;3.55;2.08;;;;;;;21.66;39.78;100609.06;10440760;28;20037;-75
2023/07/06 18:45:16;;;;;;;3.60;1.98;;;;;;;21.58;39.79;100622.84;10435743;28;20708;-74
2023/07/06 18:50:40;;;;;;;4.82;2.20;;;;;;;21.39;40.13;100627.88;10425821;28;20394;-75
2023/07/06 18:55:45;;;;;;;3.10;2.60;;;;;;;21.53;39.83;100625.28;10432370;28;20041;-75
2023/07/06 19:00:48;;;;;;;2.63;1.60;;;;;;;21.46;40.00;100633.41;10431460;28;20037;-74
2023/07/06 19:05:52;;;;;;;2.97;1.90;;;;;;;21.37;40.28;100629.94;10438775;28;20052;-75
2023/07/06 19:10:55;;;;;;;5.00;1.98;;;;;;;21.40;40.17;100645.94;10440868;28;20047;-75
2023/07/06 19:15:58;;;;;;;3.85;2.00;;;;;;;21.31;40.97;100643.50;10432739;28;20099;-75
2023/07/06 19:21:03;;;;;;;3.20;1.88;;;;;;;21.22;41.20;100650.94;10431763;28;20126;-74
2023/07/06 19:26:06;;;;;;;3.63;2.15;;;;;;;20.97;41.90;100656.63;10426852;28;20051;-75
2023/07/06 19:31:09;;;;;;;2.47;1.85;;;;;;;20.86;43.59;100662.53;10431723;28;20114;-75
2023/07/06 19:36:14;;;;;;;4.65;2.10;;;;;;;20.64;45.34;100666.16;10436845;28;20083;-75
2023/07/06 19:41:17;;;;;;;4.90;2.22;;;;;;;20.46;45.44;100678.25;10433989;28;20052;-74
2023/07/06 19:46:19;;;;;;;2.50;1.65;;;;;;;20.21;45.66;100682.97;10438257;28;20045;-75
2023/07/06 19:51:25;;;;;;;4.05;1.75;;;;;;;20.12;45.32;100682.19;10437129;28;20504;-75
2023/07/06 19:56:28;;;;;;;2.50;1.92;;;;;;;20.01;45.21;100690.78;10424786;28;20029;-75
2023/07/06 20:01:31;;;;;;;2.95;2.00;;;;;;;19.87;44.95;100696.97;10421268;28;20531;-75
2023/07/06 20:06:36;;;;;;;2.97;2.25;;;;;;;19.74;44.66;100702.16;10426092;28;20132;-75
2023/07/06 20:11:39;;;;;;;5.03;1.95;;;;;;;19.75;44.98;100707.44;10431293;28;20156;-75
2023/07/06 20:16:42;;;;;;;2.95;2.00;;;;;;;19.68;45.24;100703.72;10435331;28;20044;-74
2023/07/06 20:21:46;;;;;;;8.23;3.15;;;;;;;19.53;45.84;100706.28;10434414;28;20091;-72
2023/07/06 20:26:49;;;;;;;3.65;2.17;;;;;;;19.34;45.81;100701.25;10445827;28;20515;-72
2023/07/06 20:31:52;;;;;;;3.85;1.85;;;;;;;19.27;45.88;100705.69;10439295;28;20048;-73
2023/07/06 20:36:56;;;;;;;4.25;2.45;;;;;;;19.02;46.93;100711.16;10434136;28;20043;-74
2023/07/06 20:41:59;;;;;;;8.25;2.20;;;;;;;18.89;47.74;100717.13;10439403;28;20048;-74
2023/07/06 20:47:04;;;;;;;3.15;1.90;;;;;;;18.65;47.67;100723.41;10443529;28;20040;-74
2023/07/06 20:52:09;;;;;;;3.28;1.85;;;;;;;18.65;47.48;100725.25;10443825;28;20040;-75
2023/07/06 20:57:12;;;;;;;4.55;2.38;;;;;;;18.65;48.38;100744.28;10444426;28;20052;-75
2023/07/06 21:02:16;;;;;;;3.55;1.98;;;;;;;18.64;48.61;100737.16;10436804;28;20045;-74
2023/07/06 21:07:20;;;;;;;4.35;2.28;;;;;;;18.56;49.55;100748.88;10432776;28;20687;-74
2023/07/06 21:12:23;;;;;;;2.88;1.95;;;;;;;18.45;50.13;100754.63;10428593;28;20041;-75
2023/07/06 21:17:26;;;;;;;3.63;2.53;;;;;;;18.28;50.82;100745.59;10427677;28;20502;-74
2023/07/06 21:22:30;;;;;;;4.30;2.70;;;;;;;18.14;51.83;100752.53;10429698;28;20514;-74
2023/07/06 21:27:33;;;;;;;4.63;2.20;;;;;;;18.12;52.04;100749.97;10439373;28;20041;-74
2023/07/06 21:32:36;;;;;;;3.67;2.50;;;;;;;18.01;51.91;100752.13;10442633;28;20079;-73
2023/07/06 21:37:40;;;;;;;3.67;2.90;;;;;;;17.93;52.50;100751.03;10440009;28;20050;-74
2023/07/06 21:42:43;;;;;;;6.00;2.65;;;;;;;17.89;52.65;100748.84;10439638;28;20985;-75
2023/07/06 21:47:46;;;;;;;3.67;2.72;;;;;;;17.75;52.96;100747.59;10435041;28;20056;-74
2023/07/06 21:52:50;;;;;;;3.72;2.65;;;;;;;17.59;53.62;100752.94;10443055;28;20148;-75
2023/07/06 21:57:53;;;;;;;3.85;2.83;;;;;;;17.61;53.89;100757.19;10436362;28;20033;-75
2023/07/06 22:02:56;;;;;;;5.10;3.10;;;;;;;17.60;53.92;100766.34;10435214;28;20512;-75
2023/07/06 22:08:00;;;;;;;4.78;2.40;;;;;;;17.00;56.24;100779.78;10438503;28;20048;-74
2023/07/06 22:13:03;;;;;;;5.32;2.70;;;;;;;16.28;58.41;100793.31;10438187;28;20045;-74
2023/07/06 22:18:06;;;;;;;5.70;3.28;;;;;;;15.92;59.18;100781.50;10429459;28;20054;-75
2023/07/06 22:23:11;;;;;;;6.00;3.10;;;;;;;16.07;59.27;100790.84;10434528;28;20056;-74
2023/07/06 22:28:14;;;;;;;5.70;3.22;;;;;;;16.13;59.13;100786.69;10437394;28;20120;-73
2023/07/06 22:33:18;;;;;;;6.10;3.30;;;;;;;16.31;59.15;100784.88;10441319;28;20043;-74
2023/07/06 22:38:22;;;;;;;4.10;3.10;;;;;;;16.42;59.29;100785.69;10442601;28;20135;-76
2023/07/06 22:43:25;;;;;;;5.22;3.10;;;;;;;16.53;59.13;100788.19;10441889;28;20048;-74
2023/07/06 22:48:28;;;;;;;6.07;3.53;;;;;;;16.57;58.87;100795.00;10437364;28;20371;-74
2023/07/06 22:53:33;;;;;;;3.92;2.83;;;;;;;16.54;59.01;100785.31;10440613;28;20053;-74
2023/07/06 22:58:35;;;;;;;4.50;2.70;;;;;;;16.54;58.99;100781.75;10432701;28;20484;-74
2023/07/06 23:03:38;;;;;;;4.07;2.40;;;;;;;16.25;59.11;100790.88;10439083;28;20042;-74
2023/07/06 23:08:43;;;;;;;10.20;2.58;;;;;;;16.22;59.38;100783.06;10444122;28;20052;-74
2023/07/06 23:13:48;;;;;;;6.78;2.90;;;;;;;16.21;58.99;100786.78;10440612;28;20558;-74
2023/07/06 23:18:52;;;;;;;7.82;2.72;;;;;;;16.06;59.36;100791.84;10439995;28;20115;-75